KACY/ACY METAR and TAF weather

Enter ICAO airport designator
Station Type Date Time Source
KACY METAR 2018/01/22 19:54 UTC NOAA

KACY 221954Z 16007KT 10SM OVC090 14/06 A3010 RMK AO2 SLP192 T01390056


Station Type Date Time Source
KACY Decoded METAR 2018/01/22 19:54 UTC NOAA

ATLANTIC CITY INTERNATIONAL, NJ, United States (KACY) 39-28N 74-35W 35M
Jan 22, 2018 - 02:54 PM EST / 2018.01.22 1954 UTC
Wind: from the SSE (160 degrees) at 8 MPH (7 KT):0
Visibility: 10 mile(s):0
Sky conditions: overcast
Temperature: 57.0 F (13.9 C)
Dew Point: 42.1 F (5.6 C)
Relative Humidity: 57%
Pressure (altimeter): 30.1 in. Hg (1019 hPa)
ob: KACY 221954Z 16007KT 10SM OVC090 14/06 A3010 RMK AO2 SLP192 T01390056
cycle: 20

Station Type Date Time Source
KACY TAF 2018/01/22 18:52 UTC NOAA

TAF KACY 221747Z 2218/2318 VRB03KT P6SM BKN070
FM230200 17007KT P6SM SCT250
FM230900 18010KT P6SM OVC025 WS020/20035KT
FM231100 18013KT 4SM SHRA OVC008 WS020/20045KT
FM231400 18012G22KT 3SM SHRA OVC005


Example: see airport list